WetterOnline ( https://www.wetteronline.de )

Wetter aktuell Prenzlau

Aktuelles Wetter: Grünow (57m)

6-stündlich | Neueste Meldungen
Ortszeit Temperatur Wetter
Di, 27.09. 2:00 11.3° C bedeckt
Mo, 26.09. 20:00 13.1° C wolkig
Mo, 26.09. 14:00 15.2° C bewölkt
Mo, 26.09. 8:00 7.9° C wolkig
Mo, 26.09. 2:00 11.8° C bedeckt
So, 25.09. 20:00 14.8° C bedeckt
So, 25.09. 14:00 16.3° C bedeckt
So, 25.09. 8:00 10.8° C bedeckt
Ortszeit Temperatur Wetter
Di, 27.09. 7:30 10.9° C leichter Regen
Di, 27.09. 7:20 10.9° C leichter Regen
Di, 27.09. 7:10 10.9° C bedeckt
Di, 27.09. 7:00 11.0° C bedeckt
Di, 27.09. 6:50 11.0° C bedeckt
Di, 27.09. 6:40 11.1° C bedeckt
Di, 27.09. 6:30 11.1° C bedeckt
Di, 27.09. 6:00 11.1° C leichter Regen
Di, 27.09. 5:30 11.2° C wolkig
Di, 27.09. 5:00 11.2° C bedeckt
Di, 27.09. 4:30 11.1° C bewölkt
Ortszeit Relative Feuchte Sichtweite
Di, 27.09. 2:00 73% 60 km
Mo, 26.09. 20:00 66% >70 km
Mo, 26.09. 14:00 57% 60 km
Mo, 26.09. 8:00 97% 11 km
Mo, 26.09. 2:00 94% 24 km
So, 25.09. 20:00 77% 35 km
So, 25.09. 14:00 67% 35 km
So, 25.09. 8:00 94% 15 km
Ortszeit Relative Feuchte Sichtweite
Di, 27.09. 7:30 80% 50 km
Di, 27.09. 7:20 80% -
Di, 27.09. 7:10 80% -
Di, 27.09. 7:00 79% 55 km
Di, 27.09. 6:50 79% -
Di, 27.09. 6:40 78% -
Di, 27.09. 6:30 77% 60 km
Di, 27.09. 6:00 77% 55 km
Di, 27.09. 5:30 75% 60 km
Di, 27.09. 5:00 75% 65 km
Di, 27.09. 4:30 75% 55 km
Ortszeit Niederschlagsmenge Niederschlagsart
Di, 27.09. 2:00 0.1 l/m2 in 6 Std. Regen
Mo, 26.09. 20:00 0.0 l/m2 in 12 Std. -
Mo, 26.09. 14:00 0.0 l/m2 in 6 Std. -
Mo, 26.09. 8:00 0.1 l/m2 in 12 Std. -
Mo, 26.09. 2:00 0.1 l/m2 in 6 Std. Regen
So, 25.09. 20:00 0.0 l/m2 in 12 Std. -
So, 25.09. 14:00 0.0 l/m2 in 6 Std. -
So, 25.09. 8:00 0.2 l/m2 in 12 Std. -
Ortszeit Niederschlagsmenge Niederschlagsart
Di, 27.09. 7:30 <0.05 l/m2 in 1 Std. -
Di, 27.09. 7:20 keine Meldung -
Di, 27.09. 7:10 keine Meldung -
Di, 27.09. 7:00 <0.05 l/m2 in 1 Std. Regen
Di, 27.09. 6:50 keine Meldung -
Di, 27.09. 6:40 keine Meldung -
Di, 27.09. 6:30 <0.05 l/m2 in 1 Std. Schneeregen
Di, 27.09. 6:00 <0.05 l/m2 in 1 Std. Regen
Di, 27.09. 5:30 0.0 l/m2 in 1 Std. -
Di, 27.09. 5:00 0.0 l/m2 in 1 Std. -
Di, 27.09. 4:30 0.0 l/m2 in 1 Std. -
Ortszeit Stärke Spitze Richtung
km/h Bft. km/h Grad Sektor
Di, 27.09. 2:00 18 3 32 150° SO
Mo, 26.09. 20:00 19 3 41 170° S
Mo, 26.09. 14:00 22 4 33 210° SW
Mo, 26.09. 8:00 11 2 22 200° S
Mo, 26.09. 2:00 11 2 18 260° W
So, 25.09. 20:00 6 1 19 220° SW
So, 25.09. 14:00 7 2 17 130° SO
So, 25.09. 8:00 4 1 11 70° O
Ortszeit Stärke Spitze Richtung
km/h Bft. km/h Grad Sektor
Di, 27.09. 7:30 22 4 32 150° SO
Di, 27.09. 7:20 22 4 - 150° SO
Di, 27.09. 7:10 22 4 - 150° SO
Di, 27.09. 7:00 22 4 32 150° SO
Di, 27.09. 6:50 22 4 - 150° SO
Di, 27.09. 6:40 22 4 - 150° SO
Di, 27.09. 6:30 20 4 31 150° SO
Di, 27.09. 6:00 22 4 33 150° SO
Di, 27.09. 5:30 22 4 32 160° S
Di, 27.09. 5:00 22 4 32 160° S
Di, 27.09. 4:30 22 4 32 160° S
Ortszeit Untergrenze Bedeckung Gattung
total tief tief mittel hoch
Di, 27.09. 2:00 1470 m 8/8 8/8 - - -
Mo, 26.09. 20:00 2100 m 8/8 1/8 - - -
Mo, 26.09. 14:00 1200 m 7/8 7/8 - - -
Mo, 26.09. 8:00 30 m 6/8 2/8 - - -
Mo, 26.09. 2:00 720 m 8/8 8/8 - - -
So, 25.09. 20:00 1020 m 8/8 8/8 - - -
So, 25.09. 14:00 2100 m 8/8 8/8 - - -
So, 25.09. 8:00 2400 m 8/8 8/8 - - -
Ortszeit Bedeckungsgrad in Achtel und Wolkenuntergrenze
Di, 27.09. 7:30 3(1050m) 8(1290m)
Di, 27.09. 7:20 3(1050m) 8(1290m)
Di, 27.09. 7:10 8
Di, 27.09. 7:00 6(1020m) 8(1500m)
Di, 27.09. 6:50 6(1020m) 8(1500m)
Di, 27.09. 6:40 8
Di, 27.09. 6:30 5(1290m) 8(1470m)
Di, 27.09. 6:00 1(1110m) 8(2700m) 8(3900m)
Di, 27.09. 5:30 1(1800m) 8(3300m) 8(3900m)
Di, 27.09. 5:00 8(3300m) 8(3900m)
Di, 27.09. 4:30 7(3000m)
Ortszeit Luftdruck NN (hPa) Tendenz (hPa in 3 Std.)
Di, 27.09. 2:00 997 - 1,9
Mo, 26.09. 20:00 1000 - 1,2
Mo, 26.09. 14:00 1003 - 1,6
Mo, 26.09. 8:00 1006 - 0,8
Mo, 26.09. 2:00 1008 - 0,9
So, 25.09. 20:00 1009 - 0,8
So, 25.09. 14:00 1012 - 1,0
So, 25.09. 8:00 1013 - 0,4
Ortszeit Luftdruck NN (hPa) Tendenz (hPa in 3 Std.)
Di, 27.09. 7:30 994 - 1,3
Di, 27.09. 7:20 994 keine Meldung
Di, 27.09. 7:10 994 keine Meldung
Di, 27.09. 7:00 994 - 1,6
Di, 27.09. 6:50 994 keine Meldung
Di, 27.09. 6:40 994 keine Meldung
Di, 27.09. 6:30 994 - 1,7
Di, 27.09. 6:00 995 - 1,8
Di, 27.09. 5:30 995 - 1,8
Di, 27.09. 5:00 995 - 2,0
Di, 27.09. 4:30 996 - 1,8
Ortszeit Schneehöhe (cm)
Di, 27.09. 2:00 0
Mo, 26.09. 20:00 0
Mo, 26.09. 14:00 0
Mo, 26.09. 8:00 0
Mo, 26.09. 2:00 0
So, 25.09. 20:00 0
So, 25.09. 14:00 0
So, 25.09. 8:00 0
Ortszeit Schneehöhe (cm)
Di, 27.09. 7:30 0
Di, 27.09. 7:20 0
Di, 27.09. 7:10 0
Di, 27.09. 7:00 0
Di, 27.09. 6:50 0
Di, 27.09. 6:40 0
Di, 27.09. 6:30 0
Di, 27.09. 6:00 0
Di, 27.09. 5:30 0
Di, 27.09. 5:00 0
Di, 27.09. 4:30 0
Link zu dieser Seite / Seite empfehlen

Das Wetter in ...